sim
Sign-in with your pilot id or email,
or register
Callsign
Passwort

Schedule Details

Flight Number: OEO6151
Departure: Chicago O'Hare International Airport (KORD) at 01:55
Arrival: Munich Airport (EDDM) at 10:50

Weather Information
Getting current METAR information for KORD 010151Z 29006KT 10SM FEW065 FEW085 14/04 A2986 RMK AO2 SLP110 T01390044
Getting current METAR information for EDDM 010150Z 08001KT 1200 0500NE R08L/0450N R08R/1000N BCFG NSC 04/04 Q1010 BECMG 0600 FG

Schedule Frequency

Route Map